Time;durP1;ratioP1;P1;durP2;ratioP2;P2;SDS_P1;SDS_P2;PMS_P1;PMS_P2;Temp;Humidity;BMP_temperature;BMP_pressure;BME280_temperature;BME280_humidity;BME280_pressure;Samples;Min_cycle;Max_cycle;Signal;HPM_P1;HPM_P2
2022/10/29 00:01:34;;;;;;;1.05;1.05;;;14.20;99.90;;;;;;6140906;29;20276;-68
2022/10/29 00:04:38;;;;;;;1.02;1.02;;;14.20;99.90;;;;;;6141144;29;20279;-67
2022/10/29 00:07:45;;;;;;;0.93;0.93;;;14.20;99.90;;;;;;6141082;29;20295;-66
2022/10/29 00:10:50;;;;;;;1.38;1.30;;;14.20;99.90;;;;;;6129302;29;20596;-66
2022/10/29 00:13:57;;;;;;;1.58;0.98;;;14.20;99.90;;;;;;6117576;29;20271;-66
2022/10/29 00:17:02;;;;;;;0.90;0.90;;;14.20;99.90;;;;;;6117150;29;20276;-66
2022/10/29 00:20:08;;;;;;;1.00;1.00;;;14.20;99.90;;;;;;6117213;29;20280;-67
2022/10/29 00:23:15;;;;;;;1.20;1.20;;;14.20;99.90;;;;;;6117202;29;20272;-68
2022/10/29 00:26:21;;;;;;;1.25;1.10;;;14.20;99.90;;;;;;6117461;29;20613;-67
2022/10/29 00:29:26;;;;;;;1.10;1.00;;;14.20;99.90;;;;;;6117330;29;20268;-67
2022/10/29 00:32:31;;;;;;;3.80;1.73;;;14.20;99.90;;;;;;6117354;29;20280;-67
2022/10/29 00:35:36;;;;;;;0.90;0.90;;;14.20;99.90;;;;;;6117259;29;20271;-66
2022/10/29 00:38:42;;;;;;;1.88;0.98;;;14.20;99.90;;;;;;6116594;29;20283;-66
2022/10/29 00:41:47;;;;;;;1.00;1.00;;;14.20;99.90;;;;;;6116560;29;20508;-66
2022/10/29 00:44:52;;;;;;;2.30;1.10;;;14.20;99.90;;;;;;6116809;29;20437;-66
2022/10/29 00:47:56;;;;;;;1.10;0.90;;;14.20;99.90;;;;;;6116831;29;20292;-66
2022/10/29 00:51:03;;;;;;;1.13;1.13;;;14.10;99.90;;;;;;6116646;29;20342;-66
2022/10/29 00:54:12;;;;;;;3.90;1.10;;;14.10;99.90;;;;;;6116675;29;20272;-67
2022/10/29 00:57:20;;;;;;;1.20;1.20;;;14.10;99.90;;;;;;6117105;29;20284;-67
2022/10/29 01:00:25;;;;;;;5.47;1.30;;;14.10;99.90;;;;;;6116422;29;20272;-67
2022/10/29 01:03:30;;;;;;;1.50;1.00;;;14.00;99.90;;;;;;6116096;29;20281;-67
2022/10/29 01:06:35;;;;;;;1.10;1.10;;;14.00;99.90;;;;;;6118008;29;20293;-67
2022/10/29 01:09:42;;;;;;;1.00;1.00;;;14.00;99.90;;;;;;6122816;29;20567;-67
2022/10/29 01:13:04;;;;;;;1.50;1.40;;;14.00;99.90;;;;;;6144621;29;20275;-67
2022/10/29 01:16:18;;;;;;;1.60;1.60;;;14.00;99.90;;;;;;6145094;29;20271;-67
2022/10/29 01:19:44;;;;;;;1.48;1.48;;;14.00;99.90;;;;;;6144501;29;20267;-67
2022/10/29 01:23:02;;;;;;;3.65;1.58;;;14.00;99.90;;;;;;6144342;29;20572;-66
2022/10/29 01:26:38;;;;;;;2.83;1.58;;;14.10;99.90;;;;;;6144101;29;20271;-66
2022/10/29 01:29:59;;;;;;;1.80;1.80;;;14.10;99.90;;;;;;6144339;29;20267;-66
2022/10/29 01:33:12;;;;;;;1.90;1.90;;;14.10;99.90;;;;;;6144378;29;20272;-66
2022/10/29 01:36:26;;;;;;;2.35;1.92;;;14.00;99.90;;;;;;6144540;29;20275;-67
2022/10/29 01:39:39;;;;;;;2.20;2.10;;;14.00;99.90;;;;;;6144109;29;20267;-67
2022/10/29 01:42:49;;;;;;;2.15;1.83;;;14.00;99.90;;;;;;6144418;29;20271;-66
2022/10/29 01:46:01;;;;;;;1.92;1.92;;;14.10;99.90;;;;;;6144217;29;20275;-66
2022/10/29 01:49:11;;;;;;;1.95;1.90;;;14.00;99.90;;;;;;6143721;29;20291;-67
2022/10/29 01:52:18;;;;;;;3.13;2.25;;;14.10;99.90;;;;;;6144297;29;20271;-66
2022/10/29 01:55:30;;;;;;;2.40;2.20;;;14.00;99.90;;;;;;6143616;29;20275;-66
2022/10/29 01:58:37;;;;;;;2.00;1.95;;;14.00;99.90;;;;;;6143966;29;20271;-67
2022/10/29 02:01:52;;;;;;;3.80;2.20;;;14.00;99.90;;;;;;6143618;29;20271;-67
2022/10/29 02:05:12;;;;;;;2.65;2.45;;;14.00;99.90;;;;;;6143830;29;20271;-66
2022/10/29 02:08:25;;;;;;;3.97;2.50;;;14.00;99.90;;;;;;6143742;29;20319;-66
2022/10/29 02:11:39;;;;;;;2.75;2.60;;;14.00;99.90;;;;;;6126667;29;20399;-66
2022/10/29 02:14:49;;;;;;;2.17;2.08;;;14.00;99.90;;;;;;6119657;29;20575;-67
2022/10/29 02:17:58;;;;;;;2.60;2.50;;;13.90;99.90;;;;;;6119440;29;20272;-68
2022/10/29 02:21:04;;;;;;;3.00;2.90;;;13.90;99.90;;;;;;6119972;29;20277;-66
2022/10/29 02:24:10;;;;;;;3.15;2.90;;;13.90;99.90;;;;;;6119725;29;20268;-66
2022/10/29 02:27:15;;;;;;;2.90;2.80;;;14.00;99.90;;;;;;6119191;29;20288;-66
2022/10/29 02:30:20;;;;;;;3.00;2.80;;;13.90;99.90;;;;;;6119605;29;20575;-66
2022/10/29 02:33:25;;;;;;;3.17;2.97;;;14.00;99.90;;;;;;6119813;29;20275;-66
2022/10/29 02:36:31;;;;;;;3.53;3.30;;;14.00;99.90;;;;;;6119177;29;20560;-66
2022/10/29 02:39:36;;;;;;;3.22;3.03;;;14.00;99.90;;;;;;6119585;29;20280;-66
2022/10/29 02:42:41;;;;;;;3.22;3.03;;;14.00;99.90;;;;;;6118948;29;20275;-67
2022/10/29 02:45:46;;;;;;;8.18;3.55;;;13.90;99.90;;;;;;6119111;29;20272;-66
2022/10/29 02:48:51;;;;;;;3.90;3.60;;;13.90;99.90;;;;;;6119193;29;20292;-66
2022/10/29 02:51:57;;;;;;;4.25;3.83;;;13.90;99.90;;;;;;6119279;29;20275;-66
2022/10/29 02:55:02;;;;;;;4.97;4.57;;;13.80;99.90;;;;;;6119152;29;20573;-67
2022/10/29 02:58:07;;;;;;;5.13;4.72;;;13.80;99.90;;;;;;6118798;29;20442;-67
2022/10/29 03:01:12;;;;;;;6.57;5.80;;;13.80;99.90;;;;;;6118838;29;20272;-66
2022/10/29 03:04:17;;;;;;;8.50;6.75;;;13.80;99.90;;;;;;6118541;29;20556;-66
2022/10/29 03:07:23;;;;;;;9.15;6.28;;;13.80;99.90;;;;;;6118995;29;20271;-67
2022/10/29 03:10:28;;;;;;;12.50;6.68;;;13.80;99.90;;;;;;6126400;29;20298;-67
2022/10/29 03:13:33;;;;;;;13.57;7.30;;;13.80;99.90;;;;;;6142175;29;20275;-68
2022/10/29 03:16:38;;;;;;;6.53;5.90;;;13.80;99.90;;;;;;6142296;29;20278;-67
2022/10/29 03:19:43;;;;;;;7.88;6.55;;;13.80;99.90;;;;;;6142101;29;20274;-67
2022/10/29 03:22:49;;;;;;;10.50;6.32;;;13.90;99.90;;;;;;6142183;29;20275;-67
2022/10/29 03:25:55;;;;;;;8.63;6.35;;;13.90;99.90;;;;;;6142211;29;20284;-67
2022/10/29 03:29:00;;;;;;;7.43;5.90;;;13.90;99.90;;;;;;6142045;29;20294;-67
2022/10/29 03:32:06;;;;;;;6.55;5.38;;;14.00;99.90;;;;;;6141252;29;20267;-68
2022/10/29 03:35:14;;;;;;;6.68;5.45;;;13.90;99.90;;;;;;6141992;29;20271;-66
2022/10/29 03:38:20;;;;;;;10.45;5.35;;;13.90;99.90;;;;;;6141685;29;20571;-66
2022/10/29 03:41:25;;;;;;;5.43;4.95;;;13.90;99.90;;;;;;6141350;29;20275;-66
2022/10/29 03:44:30;;;;;;;6.43;5.40;;;13.90;99.90;;;;;;6141664;29;20349;-66
2022/10/29 03:47:35;;;;;;;5.78;5.18;;;13.90;99.90;;;;;;6141559;29;20280;-67
2022/10/29 03:50:40;;;;;;;5.82;4.85;;;13.90;99.90;;;;;;6141469;29;20382;-67
2022/10/29 03:53:46;;;;;;;6.88;5.45;;;13.90;99.90;;;;;;6141523;29;20274;-67
2022/10/29 03:56:51;;;;;;;5.95;5.35;;;13.90;99.90;;;;;;6141362;29;20276;-67
2022/10/29 03:59:56;;;;;;;6.30;5.20;;;13.90;99.90;;;;;;6141306;29;20278;-66
2022/10/29 04:03:00;;;;;;;7.80;5.55;;;14.00;99.90;;;;;;6141094;29;20271;-67
2022/10/29 04:06:11;;;;;;;6.38;5.28;;;14.00;99.90;;;;;;6141544;29;20275;-67
2022/10/29 04:09:17;;;;;;;12.45;6.07;;;14.00;99.90;;;;;;6141059;29;20540;-67
2022/10/29 04:12:22;;;;;;;7.00;5.68;;;14.00;99.90;;;;;;6117777;29;20273;-66
2022/10/29 04:15:27;;;;;;;6.57;5.72;;;14.00;99.90;;;;;;6116953;29;20276;-66
2022/10/29 04:18:32;;;;;;;8.23;6.63;;;14.00;99.90;;;;;;6117321;29;20275;-67
2022/10/29 04:21:37;;;;;;;9.80;6.43;;;14.00;99.90;;;;;;6117392;29;20268;-67
2022/10/29 04:25:03;;;;;;;8.52;6.72;;;14.00;99.90;;;;;;6117030;29;20276;-67
2022/10/29 04:28:35;;;;;;;10.50;6.93;;;14.00;99.90;;;;;;6116541;29;20279;-67
2022/10/29 04:31:47;;;;;;;13.15;7.90;;;14.10;99.90;;;;;;6117070;29;20271;-66
2022/10/29 04:34:52;;;;;;;9.45;6.75;;;14.10;99.90;;;;;;6116986;29;20272;-67
2022/10/29 04:37:57;;;;;;;8.98;7.22;;;14.10;99.90;;;;;;6116504;29;20275;-66
2022/10/29 04:41:04;;;;;;;11.05;7.47;;;14.10;99.90;;;;;;6116772;29;20276;-66
2022/10/29 04:44:10;;;;;;;16.08;7.60;;;14.20;99.90;;;;;;6116952;29;20451;-66
2022/10/29 04:47:15;;;;;;;9.65;7.07;;;14.20;99.90;;;;;;6116482;29;20272;-66
2022/10/29 04:50:19;;;;;;;13.63;7.70;;;14.20;99.90;;;;;;6116776;29;20304;-66
2022/10/29 04:53:25;;;;;;;13.40;7.47;;;14.20;99.90;;;;;;6116840;29;20276;-66
2022/10/29 04:56:31;;;;;;;10.50;7.22;;;14.20;99.90;;;;;;6116763;29;20276;-67
2022/10/29 04:59:36;;;;;;;9.35;7.93;;;14.20;99.90;;;;;;6116762;29;20271;-68
2022/10/29 05:02:40;;;;;;;11.25;7.60;;;14.10;99.90;;;;;;6116110;29;20560;-67
2022/10/29 05:05:46;;;;;;;12.40;7.78;;;14.20;99.90;;;;;;6116652;29;20386;-67
2022/10/29 05:08:50;;;;;;;11.90;8.25;;;14.20;99.90;;;;;;6116349;29;20505;-67
2022/10/29 05:11:56;;;;;;;10.73;7.93;;;14.20;99.90;;;;;;6136399;29;20291;-67
2022/10/29 05:15:01;;;;;;;15.07;7.95;;;14.20;99.90;;;;;;6140391;29;20274;-67
2022/10/29 05:18:07;;;;;;;11.23;7.38;;;14.20;99.90;;;;;;6140206;29;20271;-67
2022/10/29 05:21:12;;;;;;;10.00;7.68;;;14.30;99.90;;;;;;6140160;29;20492;-67
2022/10/29 05:24:17;;;;;;;10.90;8.10;;;14.30;99.90;;;;;;6139525;29;20582;-67
2022/10/29 05:27:23;;;;;;;11.25;8.07;;;14.30;99.90;;;;;;6135151;29;20524;-68
2022/10/29 05:30:28;;;;;;;13.00;7.75;;;14.30;99.90;;;;;;6092966;29;20297;-66
2022/10/29 05:33:33;;;;;;;12.13;7.72;;;14.40;99.90;;;;;;6093056;29;20462;-67
2022/10/29 05:36:38;;;;;;;9.00;7.90;;;14.40;99.90;;;;;;6092164;29;20272;-68
2022/10/29 05:39:42;;;;;;;12.05;8.18;;;14.40;99.90;;;;;;6092420;29;20280;-67
2022/10/29 05:42:49;;;;;;;13.60;7.85;;;14.40;99.90;;;;;;6092276;29;20273;-67
2022/10/29 05:45:53;;;;;;;14.48;7.53;;;14.50;99.90;;;;;;6092435;29;20269;-67
2022/10/29 05:48:58;;;;;;;11.65;7.22;;;14.50;99.90;;;;;;6091155;29;20265;-67
2022/10/29 05:52:03;;;;;;;10.90;6.85;;;14.50;99.90;;;;;;6092693;29;20292;-67
2022/10/29 05:55:09;;;;;;;9.48;6.72;;;14.60;99.90;;;;;;6095835;29;20272;-67
2022/10/29 05:58:15;;;;;;;8.27;7.07;;;14.50;99.90;;;;;;6096796;29;20571;-68
2022/10/29 06:01:20;;;;;;;8.10;6.35;;;14.60;99.90;;;;;;6096367;29;20600;-67
2022/10/29 06:04:25;;;;;;;7.80;6.30;;;14.60;99.90;;;;;;6096572;29;20281;-67
2022/10/29 06:07:30;;;;;;;5.85;5.47;;;14.60;99.90;;;;;;6096486;29;20273;-66
2022/10/29 06:10:35;;;;;;;6.55;5.50;;;14.60;99.90;;;;;;6105885;29;20596;-66
2022/10/29 06:13:41;;;;;;;5.80;5.28;;;14.60;99.90;;;;;;6119520;29;20272;-67
2022/10/29 06:16:46;;;;;;;5.78;4.90;;;14.60;99.90;;;;;;6120029;29;20279;-67
2022/10/29 06:19:51;;;;;;;6.35;5.03;;;14.60;99.90;;;;;;6119481;29;20293;-67
2022/10/29 06:22:59;;;;;;;5.68;4.60;;;14.70;99.90;;;;;;6119424;29;20271;-67
2022/10/29 06:26:04;;;;;;;5.05;4.45;;;14.70;99.90;;;;;;6119580;29;20272;-65
2022/10/29 06:29:10;;;;;;;4.20;3.88;;;14.70;99.90;;;;;;6119594;29;20469;-66
2022/10/29 06:32:15;;;;;;;3.83;3.63;;;14.70;99.90;;;;;;6119678;29;20343;-67
2022/10/29 06:35:20;;;;;;;4.00;3.70;;;14.70;99.90;;;;;;6119732;29;20275;-67
2022/10/29 06:38:25;;;;;;;3.10;2.90;;;14.70;99.90;;;;;;6119801;29;20276;-67
2022/10/29 06:41:29;;;;;;;2.80;2.47;;;14.70;99.90;;;;;;6118871;29;20275;-67
2022/10/29 06:44:36;;;;;;;2.47;2.28;;;14.70;99.90;;;;;;6119627;29;20272;-67
2022/10/29 06:47:41;;;;;;;2.40;2.30;;;14.70;99.90;;;;;;6119165;29;20437;-67
2022/10/29 06:50:46;;;;;;;4.13;2.05;;;14.70;99.90;;;;;;6118943;29;20308;-67
2022/10/29 06:53:52;;;;;;;3.22;2.38;;;14.70;99.90;;;;;;6119184;29;20559;-66
2022/10/29 06:56:57;;;;;;;1.92;1.80;;;14.80;99.90;;;;;;6119015;29;20268;-66
2022/10/29 07:00:05;;;;;;;2.45;2.10;;;14.70;99.90;;;;;;6119037;29;20280;-66
2022/10/29 07:03:21;;;;;;;2.33;1.70;;;14.70;99.90;;;;;;6118940;29;20272;-67
2022/10/29 07:06:27;;;;;;;2.30;1.83;;;14.80;99.90;;;;;;6119066;29;20275;-67
2022/10/29 07:09:32;;;;;;;1.95;1.85;;;14.70;99.90;;;;;;6119233;29;20308;-67
2022/10/29 07:12:40;;;;;;;2.55;2.05;;;14.70;99.90;;;;;;6141941;29;20295;-67
2022/10/29 07:15:47;;;;;;;8.85;1.80;;;14.60;99.90;;;;;;6142211;29;20267;-67
2022/10/29 07:18:52;;;;;;;1.90;1.70;;;14.60;99.90;;;;;;6142364;29;20279;-67
2022/10/29 07:21:57;;;;;;;2.10;1.67;;;14.60;99.90;;;;;;6142130;29;20275;-67
2022/10/29 07:25:02;;;;;;;2.80;1.48;;;14.50;99.90;;;;;;6141702;29;20271;-66
2022/10/29 07:28:11;;;;;;;5.18;1.63;;;14.50;99.90;;;;;;6142162;29;20275;-67
2022/10/29 07:31:17;;;;;;;2.60;2.10;;;14.40;99.90;;;;;;6141517;29;20294;-67
2022/10/29 07:34:22;;;;;;;2.90;1.73;;;14.50;99.90;;;;;;6141555;29;20271;-67
2022/10/29 07:37:27;;;;;;;4.10;1.70;;;14.50;99.90;;;;;;6141908;29;20295;-67
2022/10/29 07:40:32;;;;;;;5.97;1.70;;;14.30;99.90;;;;;;6141057;29;20349;-66
2022/10/29 07:43:37;;;;;;;3.45;1.60;;;14.20;99.90;;;;;;6141657;29;20271;-67
2022/10/29 07:46:43;;;;;;;5.20;1.90;;;14.20;99.90;;;;;;6141808;29;20579;-67
2022/10/29 07:49:48;;;;;;;2.90;1.77;;;14.10;99.90;;;;;;6141151;29;20587;-67
2022/10/29 07:52:53;;;;;;;2.47;1.83;;;14.20;99.90;;;;;;6141443;29;20291;-66
2022/10/29 07:55:59;;;;;;;7.57;2.15;;;14.10;99.90;;;;;;6140570;29;20271;-67
2022/10/29 07:59:04;;;;;;;3.38;1.88;;;14.10;99.90;;;;;;6141300;29;20284;-67
2022/10/29 08:02:12;;;;;;;2.28;2.05;;;14.00;99.90;;;;;;6141063;29;20559;-67
2022/10/29 08:05:17;;;;;;;2.03;1.77;;;14.10;99.90;;;;;;6141043;29;20291;-67
2022/10/29 08:08:22;;;;;;;4.20;1.70;;;14.00;99.90;;;;;;6140453;29;20270;-67
2022/10/29 08:11:27;;;;;;;2.80;1.83;;;14.00;99.90;;;;;;6124355;29;20300;-67
2022/10/29 08:14:31;;;;;;;2.60;1.88;;;13.90;99.90;;;;;;6117275;29;20276;-67
2022/10/29 08:17:37;;;;;;;5.65;2.10;;;13.90;99.90;;;;;;6116373;29;20271;-67
2022/10/29 08:20:42;;;;;;;2.67;1.75;;;13.90;99.90;;;;;;6117085;29;20276;-68
2022/10/29 08:23:47;;;;;;;2.70;1.90;;;13.90;99.90;;;;;;6117187;29;20275;-67
2022/10/29 08:26:52;;;;;;;3.22;1.95;;;13.90;99.90;;;;;;6117075;29;20275;-67
2022/10/29 08:29:57;;;;;;;1.88;1.58;;;13.90;99.90;;;;;;6116302;29;20267;-67
2022/10/29 08:33:04;;;;;;;5.32;1.75;;;13.90;99.90;;;;;;6116624;29;20291;-67
2022/10/29 08:36:10;;;;;;;9.43;1.98;;;13.90;99.90;;;;;;6117079;29;20297;-68
2022/10/29 08:39:15;;;;;;;6.47;1.55;;;13.90;99.90;;;;;;6116326;29;20276;-68
2022/10/29 08:42:34;;;;;;;5.90;1.77;;;13.90;99.90;;;;;;6116576;29;20276;-68
2022/10/29 08:45:40;;;;;;;5.90;1.70;;;13.90;99.90;;;;;;6116591;29;20283;-67
2022/10/29 08:48:51;;;;;;;3.08;1.58;;;13.90;99.90;;;;;;6116219;29;20434;-67
2022/10/29 08:52:02;;;;;;;4.88;1.58;;;14.00;99.90;;;;;;6116726;29;20291;-68
2022/10/29 08:55:15;;;;;;;4.25;1.60;;;13.90;99.90;;;;;;6116548;29;20271;-67
2022/10/29 08:58:31;;;;;;;3.78;1.60;;;14.00;99.90;;;;;;6099513;29;20271;-68
2022/10/29 09:01:36;;;;;;;2.25;1.48;;;14.00;99.90;;;;;;6116656;29;20276;-66
2022/10/29 09:04:43;;;;;;;3.13;1.45;;;14.00;99.90;;;;;;6116150;29;20458;-68
2022/10/29 09:08:18;;;;;;;4.03;1.27;;;14.00;99.90;;;;;;6116671;29;20276;-67
2022/10/29 09:11:44;;;;;;;3.13;1.45;;;14.00;99.90;;;;;;6131311;29;20303;-67
2022/10/29 09:15:29;;;;;;;1.35;1.00;;;14.10;99.90;;;;;;6139625;29;20267;-68
2022/10/29 09:18:55;;;;;;;2.00;1.55;;;14.00;99.90;;;;;;6140163;29;20275;-67
2022/10/29 09:22:11;;;;;;;3.72;1.17;;;14.00;99.90;;;;;;6139929;29;20271;-67
2022/10/29 09:25:20;;;;;;;1.40;1.30;;;14.00;99.90;;;;;;6140048;29;20288;-68
2022/10/29 09:28:36;;;;;;;7.20;4.18;;;14.10;99.90;;;;;;6140478;29;20267;-67
2022/10/29 09:31:44;;;;;;;3.25;2.55;;;14.10;99.90;;;;;;6143861;29;20276;-67
2022/10/29 09:34:51;;;;;;;8.18;1.50;;;14.10;99.90;;;;;;6144403;29;20302;-68
2022/10/29 09:38:00;;;;;;;2.63;1.40;;;14.10;99.90;;;;;;6143923;29;20566;-67
2022/10/29 09:41:05;;;;;;;5.68;1.25;;;14.10;99.90;;;;;;6143882;29;20272;-67
2022/10/29 09:44:19;;;;;;;1.38;1.10;;;14.10;99.90;;;;;;6144207;29;20283;-68
2022/10/29 09:47:35;;;;;;;1.30;1.15;;;14.10;99.90;;;;;;6143893;29;20271;-68
2022/10/29 09:50:48;;;;;;;0.80;0.80;;;14.10;99.90;;;;;;6144179;29;20280;-67
2022/10/29 09:53:54;;;;;;;5.45;1.17;;;14.10;99.90;;;;;;6144127;29;20287;-67
2022/10/29 09:57:01;;;;;;;1.58;1.00;;;14.10;99.90;;;;;;6143916;29;20279;-67
2022/10/29 10:00:18;;;;;;;1.60;1.00;;;14.10;99.90;;;;;;6143646;29;20267;-67
2022/10/29 10:03:29;;;;;;;6.43;1.10;;;14.20;99.90;;;;;;6143806;29;20575;-68
2022/10/29 10:07:03;;;;;;;1.13;1.13;;;14.20;99.90;;;;;;6143725;29;20271;-67
2022/10/29 10:10:21;;;;;;;3.53;1.13;;;14.20;99.90;;;;;;6137097;29;20292;-67
2022/10/29 10:13:28;;;;;;;4.00;1.17;;;14.20;99.90;;;;;;6119552;29;20623;-66
2022/10/29 10:16:33;;;;;;;1.25;1.05;;;14.20;99.90;;;;;;6119377;29;20275;-68
2022/10/29 10:19:44;;;;;;;1.38;0.95;;;14.20;99.90;;;;;;6119914;29;20272;-67
2022/10/29 10:22:49;;;;;;;2.95;1.27;;;14.30;99.90;;;;;;6118955;29;20284;-67
2022/10/29 10:25:57;;;;;;;2.15;1.23;;;14.30;99.90;;;;;;6119669;29;20271;-67
2022/10/29 10:29:14;;;;;;;1.27;0.90;;;14.30;99.90;;;;;;6119549;29;20288;-67
2022/10/29 10:32:19;;;;;;;2.05;1.10;;;14.30;99.90;;;;;;6119094;29;20276;-67
2022/10/29 10:35:29;;;;;;;2.97;1.00;;;14.30;99.90;;;;;;6119338;29;20280;-67
2022/10/29 10:38:44;;;;;;;5.75;1.17;;;14.30;99.90;;;;;;6118981;29;20272;-67
2022/10/29 10:41:51;;;;;;;1.95;0.82;;;14.30;99.90;;;;;;6119200;29;20271;-68
2022/10/29 10:44:59;;;;;;;2.05;1.27;;;14.30;99.90;;;;;;6119091;29;20283;-68
2022/10/29 10:48:09;;;;;;;1.08;0.90;;;14.40;99.90;;;;;;6119158;29;20276;-68
2022/10/29 10:51:23;;;;;;;2.95;1.00;;;14.40;99.90;;;;;;6119247;29;20272;-69
2022/10/29 10:54:35;;;;;;;1.27;0.82;;;14.40;99.90;;;;;;6118669;29;20295;-67
2022/10/29 10:57:49;;;;;;;4.72;1.00;;;14.40;99.90;;;;;;6118773;29;20524;-67
2022/10/29 11:00:58;;;;;;;2.15;1.13;;;14.40;99.90;;;;;;6118992;29;20568;-67
2022/10/29 11:04:13;;;;;;;1.95;0.90;;;14.50;99.90;;;;;;6118484;29;20591;-68
2022/10/29 11:07:18;;;;;;;4.70;1.15;;;14.50;99.90;;;;;;6118819;29;20275;-67
2022/10/29 11:10:31;;;;;;;3.03;1.02;;;14.40;99.90;;;;;;6126071;29;20291;-66
2022/10/29 11:13:40;;;;;;;1.50;1.00;;;14.50;99.90;;;;;;6142175;29;20291;-67
2022/10/29 11:16:49;;;;;;;1.20;0.88;;;14.50;99.90;;;;;;6141433;29;20267;-67
2022/10/29 11:19:58;;;;;;;3.15;1.00;;;14.50;99.90;;;;;;6141324;29;20276;-67
2022/10/29 11:23:27;;;;;;;3.83;0.98;;;14.50;99.90;;;;;;6141873;29;20567;-67
2022/10/29 11:26:35;;;;;;;1.90;0.98;;;14.50;99.90;;;;;;6141936;29;20279;-67
2022/10/29 11:29:49;;;;;;;2.40;0.95;;;14.50;99.90;;;;;;6141950;29;20267;-67
2022/10/29 11:33:00;;;;;;;2.22;1.20;;;14.50;99.90;;;;;;6141733;29;20528;-67
2022/10/29 11:36:12;;;;;;;2.20;1.35;;;14.60;99.90;;;;;;6141261;29;20575;-67
2022/10/29 11:39:21;;;;;;;1.00;1.00;;;14.60;99.90;;;;;;6141775;29;20276;-67
2022/10/29 11:42:26;;;;;;;0.90;0.90;;;14.50;99.90;;;;;;6141316;29;20336;-67
2022/10/29 11:45:40;;;;;;;2.03;0.98;;;14.50;99.90;;;;;;6141240;29;20449;-67
2022/10/29 11:48:57;;;;;;;2.75;1.13;;;14.50;99.90;;;;;;6141446;29;20271;-69
2022/10/29 11:52:08;;;;;;;1.05;0.90;;;14.50;99.90;;;;;;6140618;29;20280;-67
2022/10/29 11:55:26;;;;;;;1.33;1.17;;;14.50;99.90;;;;;;6141067;29;20287;-69
2022/10/29 11:58:36;;;;;;;1.55;0.80;;;14.50;99.90;;;;;;6140748;29;20291;-67
2022/10/29 12:01:52;;;;;;;1.15;1.05;;;14.40;99.90;;;;;;6141029;29;20528;-67
2022/10/29 12:05:01;;;;;;;1.17;0.75;;;14.40;99.90;;;;;;6140877;29;20275;-67
2022/10/29 12:08:21;;;;;;;1.15;0.80;;;14.40;99.90;;;;;;6140715;29;20268;-68
2022/10/29 12:11:35;;;;;;;5.43;0.77;;;14.30;99.90;;;;;;6124376;29;20292;-68
2022/10/29 12:14:51;;;;;;;2.53;0.73;;;14.30;99.90;;;;;;6116996;29;20588;-67
2022/10/29 12:18:06;;;;;;;5.00;1.10;;;14.30;99.90;;;;;;6116977;29;20277;-67
2022/10/29 12:21:20;;;;;;;5.32;1.30;;;14.30;99.90;;;;;;6116964;29;20275;-68
2022/10/29 12:24:45;;;;;;;2.20;1.38;;;14.20;99.90;;;;;;6117205;29;20276;-68
2022/10/29 12:28:00;;;;;;;2.47;1.10;;;14.20;99.90;;;;;;6117230;29;20464;-66
2022/10/29 12:31:16;;;;;;;1.58;1.02;;;14.20;99.90;;;;;;6116711;29;20276;-67
2022/10/29 12:34:29;;;;;;;2.45;0.95;;;14.20;99.90;;;;;;6117018;29;20292;-67
2022/10/29 12:37:42;;;;;;;2.28;1.10;;;14.20;99.90;;;;;;6116764;29;20296;-66
2022/10/29 12:40:51;;;;;;;1.20;1.20;;;14.20;99.90;;;;;;6116860;29;20272;-67
2022/10/29 12:44:03;;;;;;;5.20;1.60;;;14.20;99.90;;;;;;6116568;29;20285;-68
2022/10/29 12:47:14;;;;;;;0.85;0.85;;;14.20;99.90;;;;;;6116637;29;20559;-67
2022/10/29 12:50:33;;;;;;;2.00;0.90;;;14.20;99.90;;;;;;6116301;29;20275;-68
2022/10/29 12:53:44;;;;;;;2.92;1.33;;;14.20;99.90;;;;;;6116685;29;20271;-67
2022/10/29 12:56:49;;;;;;;2.80;1.20;;;14.20;99.90;;;;;;6116615;29;20308;-67
2022/10/29 12:59:54;;;;;;;1.45;1.25;;;14.20;99.90;;;;;;6116728;29;20276;-67
2022/10/29 13:02:59;;;;;;;2.88;0.98;;;14.20;99.90;;;;;;6102053;29;20583;-66
2022/10/29 13:06:51;;;;;;;1.17;0.95;;;14.20;99.90;;;;;;6121490;29;20492;-66
2022/10/29 13:10:47;;;;;;;3.42;1.30;;;14.20;99.90;;;;;;6093637;29;20262;-67
2022/10/29 13:13:56;;;;;;;1.35;1.25;;;14.30;99.90;;;;;;6144538;29;20449;-67
2022/10/29 13:17:03;;;;;;;4.10;1.10;;;14.20;99.90;;;;;;6144767;29;20270;-67
2022/10/29 13:20:21;;;;;;;3.40;1.20;;;14.20;99.90;;;;;;6144770;29;20271;-67
2022/10/29 13:23:36;;;;;;;1.02;0.95;;;14.10;99.90;;;;;;6144502;29;20272;-68
2022/10/29 13:27:01;;;;;;;1.60;1.00;;;14.10;99.90;;;;;;6144027;29;20271;-67
2022/10/29 13:30:24;;;;;;;4.38;1.10;;;14.10;99.90;;;;;;6144428;29;20276;-67
2022/10/29 13:33:51;;;;;;;5.60;1.10;;;14.10;99.90;;;;;;6144293;29;20279;-67
2022/10/29 13:38:02;;;;;;;2.83;0.80;;;14.10;99.90;;;;;;6144347;29;20486;-67
2022/10/29 13:41:14;;;;;;;4.22;1.20;;;14.10;99.90;;;;;;6144230;29;20267;-66
2022/10/29 13:44:22;;;;;;;2.95;1.40;;;14.10;99.90;;;;;;6144254;29;20275;-68
2022/10/29 13:47:27;;;;;;;1.75;1.20;;;14.00;99.90;;;;;;6144313;29;20275;-68
2022/10/29 13:50:32;;;;;;;1.20;1.15;;;14.00;99.90;;;;;;6144034;29;20270;-67
2022/10/29 13:53:42;;;;;;;2.10;1.13;;;14.00;99.90;;;;;;6144019;29;20271;-67
2022/10/29 13:56:53;;;;;;;4.20;1.70;;;14.10;99.90;;;;;;6143720;29;20295;-67
2022/10/29 14:00:03;;;;;;;2.40;0.90;;;14.00;99.90;;;;;;6143850;29;20460;-67
2022/10/29 14:03:16;;;;;;;1.50;1.20;;;14.00;99.90;;;;;;6143817;29;20271;-68
2022/10/29 14:06:25;;;;;;;3.92;1.15;;;14.00;99.90;;;;;;6143455;29;20274;-66
2022/10/29 14:09:38;;;;;;;2.90;1.50;;;14.00;99.90;;;;;;6142802;29;20271;-66
2022/10/29 14:12:44;;;;;;;2.58;1.40;;;14.00;99.90;;;;;;6119789;29;20268;-66
2022/10/29 14:16:02;;;;;;;2.63;1.58;;;14.00;99.90;;;;;;6118664;29;20300;-68
2022/10/29 14:19:14;;;;;;;1.63;1.00;;;14.00;99.90;;;;;;6119759;29;20268;-66
2022/10/29 14:22:35;;;;;;;1.35;0.90;;;13.90;99.90;;;;;;6119781;29;20275;-67
2022/10/29 14:25:40;;;;;;;6.97;1.30;;;13.90;99.90;;;;;;6119208;29;20280;-66
2022/10/29 14:28:46;;;;;;;5.13;1.40;;;13.90;99.90;;;;;;6119138;29;20271;-66
2022/10/29 14:32:05;;;;;;;6.25;1.50;;;13.90;99.90;;;;;;6119659;29;20369;-68
2022/10/29 14:35:16;;;;;;;2.80;0.90;;;13.80;99.90;;;;;;6119421;29;20299;-66
2022/10/29 14:38:33;;;;;;;2.17;1.25;;;13.80;99.90;;;;;;6118903;29;20277;-67
2022/10/29 14:41:39;;;;;;;4.57;1.83;;;13.80;99.90;;;;;;6118968;29;20281;-66
2022/10/29 14:44:48;;;;;;;4.15;1.75;;;13.70;99.90;;;;;;6119493;29;20268;-66
2022/10/29 14:47:56;;;;;;;1.92;0.90;;;13.80;99.90;;;;;;6119067;29;20272;-67
2022/10/29 14:51:01;;;;;;;3.20;1.65;;;13.80;99.90;;;;;;6119175;29;20271;-66
2022/10/29 14:54:08;;;;;;;5.03;1.42;;;13.80;99.90;;;;;;6118637;29;20276;-67
2022/10/29 14:57:16;;;;;;;2.97;1.58;;;13.70;99.90;;;;;;6118506;29;20291;-67
2022/10/29 15:00:28;;;;;;;1.35;1.25;;;13.60;99.90;;;;;;6118578;29;20272;-67
2022/10/29 15:03:34;;;;;;;2.53;1.10;;;13.60;99.90;;;;;;6118593;29;20580;-67
2022/10/29 15:06:39;;;;;;;1.35;1.35;;;13.70;99.90;;;;;;6119055;29;20279;-67
2022/10/29 15:09:46;;;;;;;2.95;1.67;;;13.60;99.90;;;;;;6120615;29;20276;-67
2022/10/29 15:12:53;;;;;;;1.48;1.17;;;13.70;99.90;;;;;;6142325;29;20271;-68
2022/10/29 15:16:03;;;;;;;2.05;1.40;;;13.70;99.90;;;;;;6141758;29;20291;-67
2022/10/29 15:19:14;;;;;;;1.50;1.23;;;13.60;99.90;;;;;;6142319;29;20271;-67
2022/10/29 15:22:23;;;;;;;2.10;1.10;;;13.60;99.90;;;;;;6142279;29;20276;-68
2022/10/29 15:25:31;;;;;;;1.88;1.33;;;13.50;99.90;;;;;;6141838;29;20279;-67
2022/10/29 15:28:40;;;;;;;2.13;1.30;;;13.60;99.90;;;;;;6141982;29;20269;-67
2022/10/29 15:31:48;;;;;;;4.93;1.38;;;13.60;99.90;;;;;;6142108;29;20357;-67
2022/10/29 15:34:55;;;;;;;3.47;1.23;;;13.60;99.90;;;;;;6141423;29;20267;-67
2022/10/29 15:38:00;;;;;;;1.73;1.35;;;13.60;99.90;;;;;;6141081;29;20307;-67
2022/10/29 15:41:33;;;;;;;3.22;1.40;;;13.50;99.90;;;;;;6141613;29;20275;-67
2022/10/29 15:44:39;;;;;;;1.23;1.10;;;13.50;99.90;;;;;;6141096;29;20275;-67
2022/10/29 15:47:48;;;;;;;2.05;1.40;;;13.50;99.90;;;;;;6141258;29;20279;-66
2022/10/29 15:50:53;;;;;;;6.35;1.58;;;13.40;99.90;;;;;;6141062;29;20271;-67
2022/10/29 15:54:02;;;;;;;1.35;1.20;;;13.40;99.90;;;;;;6141182;29;20581;-67
2022/10/29 15:57:09;;;;;;;3.20;1.40;;;13.50;99.90;;;;;;6140873;29;20295;-66
2022/10/29 16:00:15;;;;;;;5.57;1.50;;;13.50;99.90;;;;;;6140981;29;20276;-66
2022/10/29 16:03:23;;;;;;;1.92;1.42;;;13.40;99.90;;;;;;6140923;29;20288;-67
2022/10/29 16:06:28;;;;;;;1.67;1.40;;;13.50;99.90;;;;;;6141193;29;20279;-66
2022/10/29 16:09:33;;;;;;;2.58;1.48;;;13.40;99.90;;;;;;6139529;29;20535;-66
2022/10/29 16:12:38;;;;;;;2.60;1.70;;;13.40;99.90;;;;;;6117211;29;20295;-66
2022/10/29 16:15:43;;;;;;;5.00;1.45;;;13.40;99.90;;;;;;6117401;29;20271;-66
2022/10/29 16:18:51;;;;;;;2.92;1.48;;;13.40;99.90;;;;;;6117150;29;20295;-66
2022/10/29 16:21:56;;;;;;;2.58;1.30;;;13.40;99.90;;;;;;6117291;29;20276;-67
2022/10/29 16:25:05;;;;;;;4.03;1.17;;;13.30;99.90;;;;;;6117265;29;20576;-66